createdAt,value
2023-04-20T00:01:48.611Z,100762.50
2023-04-20T00:04:16.172Z,100750.22
2023-04-20T00:06:44.172Z,100759.34
2023-04-20T00:09:13.270Z,100758.50
2023-04-20T00:11:40.497Z,100759.47
2023-04-20T00:14:07.564Z,100754.28
2023-04-20T00:16:34.706Z,100749.56
2023-04-20T00:19:01.930Z,100758.00
2023-04-20T00:21:29.010Z,100750.03
2023-04-20T00:23:56.216Z,100743.91
2023-04-20T00:26:23.244Z,100726.03
2023-04-20T00:28:53.299Z,100749.09
2023-04-20T00:31:21.029Z,100750.78
2023-04-20T00:33:48.875Z,100739.41
2023-04-20T00:36:15.992Z,100744.50
2023-04-20T00:38:43.130Z,100729.28
2023-04-20T00:41:10.196Z,100741.41
2023-04-20T00:43:37.662Z,100731.50
2023-04-20T00:46:04.776Z,100717.13
2023-04-20T00:48:31.893Z,100733.75
2023-04-20T00:50:59.248Z,100741.41
2023-04-20T00:53:26.327Z,100734.25
2023-04-20T00:55:53.693Z,100739.31
2023-04-20T00:58:21.534Z,100727.97
2023-04-20T01:00:48.543Z,100729.53
2023-04-20T01:03:18.428Z,100706.66
2023-04-20T01:05:49.406Z,100713.53
2023-04-20T01:08:16.441Z,100706.44
2023-04-20T01:10:43.553Z,100709.84
2023-04-20T01:13:10.955Z,100705.34
2023-04-20T01:15:38.063Z,100716.56
2023-04-20T01:18:06.795Z,100717.38
2023-04-20T01:20:34.718Z,100711.25
2023-04-20T01:23:01.985Z,100705.06
2023-04-20T01:25:29.299Z,100710.25
2023-04-20T01:27:56.371Z,100710.22
2023-04-20T01:30:23.417Z,100704.97
2023-04-20T01:32:50.541Z,100707.41
2023-04-20T01:35:17.530Z,100704.59
2023-04-20T01:37:45.368Z,100692.94
2023-04-20T01:40:14.088Z,100686.56
2023-04-20T01:42:41.374Z,100703.16
2023-04-20T01:45:09.088Z,100708.28
2023-04-20T01:47:37.414Z,100688.97
2023-04-20T01:50:05.172Z,100688.88
2023-04-20T01:52:33.619Z,100691.44
2023-04-20T01:55:00.709Z,100697.53
2023-04-20T01:57:27.855Z,100695.72
2023-04-20T01:59:55.136Z,100635.75
2023-04-20T02:02:22.365Z,100631.28
2023-04-20T02:04:49.460Z,100695.50
2023-04-20T02:07:16.791Z,100672.53
2023-04-20T02:09:44.027Z,100678.84
2023-04-20T02:12:11.168Z,100685.19
2023-04-20T02:14:41.163Z,100689.34
2023-04-20T02:17:10.892Z,100693.56
2023-04-20T02:19:38.388Z,100695.22
2023-04-20T02:22:05.815Z,100648.50
2023-04-20T02:24:34.133Z,100693.47
2023-04-20T02:27:02.587Z,100684.59
2023-04-20T02:29:29.695Z,100682.03
2023-04-20T02:31:56.881Z,100692.41
2023-04-20T02:34:24.642Z,100692.22
2023-04-20T02:36:51.680Z,100686.84
2023-04-20T02:39:19.048Z,100697.16
2023-04-20T02:41:46.415Z,100677.66
2023-04-20T02:44:13.619Z,100676.72
2023-04-20T02:46:41.019Z,100694.28
2023-04-20T02:49:08.524Z,100670.38
2023-04-20T02:51:40.514Z,100635.50
2023-04-20T02:54:07.617Z,100689.25
2023-04-20T02:56:34.667Z,100694.38
2023-04-20T02:59:06.102Z,100676.63
2023-04-20T03:01:39.155Z,100692.59
2023-04-20T03:04:14.062Z,100681.22
2023-04-20T03:06:51.801Z,100665.50
2023-04-20T03:09:25.509Z,100665.56
2023-04-20T03:12:10.983Z,100685.22
2023-04-20T03:14:52.662Z,100672.38
2023-04-20T03:17:24.930Z,100676.22
2023-04-20T03:19:52.212Z,100675.63
2023-04-20T03:22:19.464Z,100673.31
2023-04-20T03:24:51.920Z,100679.47
2023-04-20T03:27:40.124Z,100677.75
2023-04-20T03:30:11.744Z,100647.06
2023-04-20T03:32:39.095Z,100674.69
2023-04-20T03:35:07.195Z,100673.41
2023-04-20T03:37:35.083Z,100669.66
2023-04-20T03:40:02.196Z,100661.81
2023-04-20T03:42:30.518Z,100673.59
2023-04-20T03:44:57.502Z,100670.53
2023-04-20T03:47:24.649Z,100645.09
2023-04-20T03:49:51.724Z,100672.94
2023-04-20T03:52:18.699Z,100669.09
2023-04-20T03:54:46.050Z,100591.41
2023-04-20T03:57:15.739Z,100643.75
2023-04-20T03:59:43.521Z,100670.34
2023-04-20T04:02:14.639Z,100643.28
2023-04-20T04:04:45.513Z,100646.84
2023-04-20T04:07:12.709Z,100603.84
2023-04-20T04:09:41.405Z,100595.13
2023-04-20T04:12:09.104Z,100639.91
2023-04-20T04:14:36.189Z,100652.22
2023-04-20T04:17:04.156Z,100641.34
2023-04-20T04:19:33.920Z,100651.03
2023-04-20T04:22:02.825Z,100636.88
2023-04-20T04:24:34.335Z,100653.38
2023-04-20T04:27:07.120Z,100656.53
2023-04-20T04:29:41.931Z,100654.94
2023-04-20T04:32:14.177Z,100594.22
2023-04-20T04:34:44.498Z,100653.88
2023-04-20T04:37:12.525Z,100648.84
2023-04-20T04:39:44.824Z,100648.22
2023-04-20T04:42:25.569Z,100640.06
2023-04-20T04:44:54.964Z,100585.88
2023-04-20T04:47:29.784Z,100627.47
2023-04-20T04:49:56.885Z,100633.09
2023-04-20T04:52:23.879Z,100626.31
2023-04-20T04:54:50.914Z,100622.22
2023-04-20T04:57:17.918Z,100625.16
2023-04-20T04:59:44.974Z,100613.06
2023-04-20T05:02:11.997Z,100624.50
2023-04-20T05:04:39.107Z,100621.81
2023-04-20T05:07:06.296Z,100614.78
2023-04-20T05:09:33.618Z,100614.66
2023-04-20T05:12:01.118Z,100617.19
2023-04-20T05:14:28.286Z,100606.75
2023-04-20T05:16:55.518Z,100610.66
2023-04-20T05:19:22.596Z,100611.69
2023-04-20T05:21:49.600Z,100606.53
2023-04-20T05:24:17.678Z,100578.63
2023-04-20T05:26:44.716Z,100598.25
2023-04-20T05:29:11.834Z,100594.94
2023-04-20T05:31:38.933Z,100604.69
2023-04-20T05:34:06.004Z,100606.56
2023-04-20T05:36:33.766Z,100604.09
2023-04-20T05:39:01.108Z,100602.53
2023-04-20T05:41:28.173Z,100599.06
2023-04-20T05:43:56.960Z,100591.19
2023-04-20T05:46:24.201Z,100590.28
2023-04-20T05:48:51.278Z,100594.59
2023-04-20T05:51:18.440Z,100576.16
2023-04-20T05:53:45.490Z,100587.44
2023-04-20T05:56:13.621Z,100592.72
2023-04-20T05:58:41.395Z,100578.69
2023-04-20T06:01:08.371Z,100583.84
2023-04-20T06:03:35.652Z,100583.72
2023-04-20T06:06:02.828Z,100573.78
2023-04-20T06:08:30.537Z,100579.56
2023-04-20T06:10:58.272Z,100587.56
2023-04-20T06:13:25.569Z,100583.13
2023-04-20T06:15:55.765Z,100568.22
2023-04-20T06:18:23.190Z,100590.47
2023-04-20T06:23:17.237Z,100576.31
2023-04-20T06:25:44.322Z,100580.34
2023-04-20T06:28:11.403Z,100582.22
2023-04-20T06:30:38.587Z,100576.88
2023-04-20T06:33:05.940Z,100584.09
2023-04-20T06:35:33.001Z,100571.31
2023-04-20T06:38:02.527Z,100571.84
2023-04-20T06:40:29.914Z,100566.59
2023-04-20T06:42:56.982Z,100573.50
2023-04-20T06:45:23.941Z,100565.03
2023-04-20T06:47:51.096Z,100567.22
2023-04-20T06:50:18.199Z,100567.19
2023-04-20T06:52:45.592Z,100568.00
2023-04-20T06:55:13.414Z,100560.25
2023-04-20T06:57:40.867Z,100559.56
2023-04-20T07:00:10.147Z,100547.91
2023-04-20T07:02:48.117Z,100552.50
2023-04-20T07:05:16.013Z,100548.94
2023-04-20T07:07:43.716Z,100542.75
2023-04-20T07:10:14.143Z,100530.06
2023-04-20T07:12:43.269Z,100527.75
2023-04-20T07:15:11.289Z,100536.91
2023-04-20T07:17:38.519Z,100501.59
2023-04-20T07:20:08.426Z,100513.63
2023-04-20T07:22:37.104Z,100535.25
2023-04-20T07:25:06.810Z,100544.34
2023-04-20T07:27:40.044Z,100538.81
2023-04-20T07:30:08.996Z,100536.22
2023-04-20T07:32:39.114Z,100538.25
2023-04-20T07:35:06.646Z,100519.75
2023-04-20T07:37:35.139Z,100531.22
2023-04-20T07:40:02.567Z,100524.41
2023-04-20T07:42:32.866Z,100525.50
2023-04-20T07:44:59.948Z,100496.66
2023-04-20T07:47:27.003Z,100516.38
2023-04-20T07:49:54.229Z,100520.16
2023-04-20T07:52:21.283Z,100514.94
2023-04-20T07:54:48.332Z,100497.50
2023-04-20T07:57:15.503Z,100521.25
2023-04-20T07:59:42.528Z,100521.94
2023-04-20T08:02:09.735Z,100475.78
2023-04-20T08:04:40.604Z,100517.06
2023-04-20T08:07:07.813Z,100525.78
2023-04-20T08:09:34.839Z,100520.22
2023-04-20T08:12:01.994Z,100512.13
2023-04-20T08:14:29.066Z,100504.31
2023-04-20T08:16:56.162Z,100509.56
2023-04-20T08:19:23.478Z,100514.50
2023-04-20T08:21:51.436Z,100515.88
2023-04-20T08:24:19.385Z,100508.56
2023-04-20T08:26:46.932Z,100515.41
2023-04-20T08:29:13.961Z,100497.72
2023-04-20T08:31:41.257Z,100487.72
2023-04-20T08:34:08.379Z,100480.00
2023-04-20T08:36:36.317Z,100506.44
2023-04-20T08:39:12.792Z,100500.63
2023-04-20T08:41:40.077Z,100496.47
2023-04-20T08:44:09.835Z,100482.56
2023-04-20T08:46:38.572Z,100484.19
2023-04-20T08:49:05.922Z,100487.13
2023-04-20T08:51:33.773Z,100477.53
2023-04-20T08:54:11.524Z,100476.97
2023-04-20T08:56:47.170Z,100464.28
2023-04-20T08:59:17.075Z,100402.88
2023-04-20T09:01:45.240Z,100484.19
2023-04-20T09:04:20.245Z,100426.72
2023-04-20T09:06:50.428Z,100458.06
2023-04-20T09:09:18.915Z,100465.66
2023-04-20T09:11:46.884Z,100429.84
2023-04-20T09:14:19.292Z,100470.25
2023-04-20T09:16:54.086Z,100463.47
2023-04-20T09:19:24.939Z,100475.91
2023-04-20T09:21:54.515Z,100422.81
2023-04-20T09:24:23.503Z,100476.88
2023-04-20T09:26:50.673Z,100458.31
2023-04-20T09:29:19.481Z,100464.94
2023-04-20T09:31:48.190Z,100442.53
2023-04-20T09:34:16.131Z,100463.22
2023-04-20T09:36:46.082Z,100460.31
2023-04-20T09:39:20.832Z,100452.28
2023-04-20T09:41:49.250Z,100453.06
2023-04-20T09:44:17.500Z,100445.03
2023-04-20T09:46:45.572Z,100449.38
2023-04-20T09:49:15.060Z,100445.44
2023-04-20T09:51:45.382Z,100444.97
2023-04-20T09:54:13.803Z,100436.28
2023-04-20T09:56:41.296Z,100446.13
2023-04-20T09:59:08.402Z,100443.50
2023-04-20T10:01:38.266Z,100404.59
2023-04-20T10:04:14.745Z,100435.00
2023-04-20T10:06:52.534Z,100435.31
2023-04-20T10:09:26.069Z,100421.97
2023-04-20T10:11:55.111Z,100431.50
2023-04-20T10:14:24.973Z,100429.28
2023-04-20T10:17:29.924Z,100432.38
2023-04-20T10:19:57.274Z,100428.78
2023-04-20T10:22:34.662Z,100420.31
2023-04-20T10:25:14.259Z,100417.72
2023-04-20T10:27:53.193Z,100406.28
2023-04-20T10:30:20.919Z,100425.47
2023-04-20T10:32:48.235Z,100412.72
2023-04-20T10:35:16.318Z,100413.66
2023-04-20T10:37:51.516Z,100423.00
2023-04-20T10:40:27.852Z,100423.03
2023-04-20T10:42:54.894Z,100408.34
2023-04-20T10:45:22.144Z,100400.75
2023-04-20T10:47:49.341Z,100425.31
2023-04-20T10:50:16.919Z,100414.91
2023-04-20T10:52:45.032Z,100402.91
2023-04-20T10:55:23.607Z,100417.81
2023-04-20T10:57:51.376Z,100409.38
2023-04-20T11:00:23.488Z,100414.72
2023-04-20T11:02:56.547Z,100394.00
2023-04-20T11:05:27.223Z,100397.50
2023-04-20T11:07:59.085Z,100407.97
2023-04-20T11:10:40.810Z,100397.72
2023-04-20T11:13:08.296Z,100400.47
2023-04-20T11:15:35.777Z,100389.34
2023-04-20T11:18:10.019Z,100389.47
2023-04-20T11:20:37.577Z,100402.59
2023-04-20T11:23:06.165Z,100385.19
2023-04-20T11:25:33.265Z,100372.19
2023-04-20T11:28:09.724Z,100396.66
2023-04-20T11:30:43.300Z,100398.34
2023-04-20T11:33:11.057Z,100382.56
2023-04-20T11:35:40.230Z,100396.53
2023-04-20T11:38:08.440Z,100388.66
2023-04-20T11:40:36.361Z,100386.09
2023-04-20T11:43:04.826Z,100375.56
2023-04-20T11:45:36.727Z,100369.41
2023-04-20T11:48:05.307Z,100365.03
2023-04-20T11:50:32.396Z,100374.75
2023-04-20T11:52:59.402Z,100363.47
2023-04-20T11:55:26.485Z,100363.44
2023-04-20T11:57:53.474Z,100351.22
2023-04-20T12:00:20.965Z,100358.22
2023-04-20T12:02:48.491Z,100354.72
2023-04-20T12:05:15.741Z,100345.88
2023-04-20T12:07:43.877Z,100325.88
2023-04-20T12:10:11.018Z,100344.03
2023-04-20T12:12:38.662Z,100341.41
2023-04-20T12:15:06.805Z,100340.44
2023-04-20T12:17:33.883Z,100328.28
2023-04-20T12:20:01.282Z,100343.97
2023-04-20T12:22:30.913Z,100321.25
2023-04-20T12:24:57.928Z,100312.44
2023-04-20T12:27:25.730Z,100299.34
2023-04-20T12:29:52.752Z,100315.91
2023-04-20T12:32:19.816Z,100318.59
2023-04-20T12:34:46.955Z,100309.09
2023-04-20T12:37:14.992Z,100310.03
2023-04-20T12:39:41.984Z,100276.97
2023-04-20T12:42:09.666Z,100276.88
2023-04-20T12:44:36.671Z,100282.94
2023-04-20T12:47:03.807Z,100289.06
2023-04-20T12:49:31.949Z,100283.78
2023-04-20T12:52:00.753Z,100280.31
2023-04-20T12:54:27.738Z,100270.69
2023-04-20T12:56:54.773Z,100261.06
2023-04-20T12:59:21.874Z,100281.81
2023-04-20T13:01:49.009Z,100283.53
2023-04-20T13:04:16.764Z,100241.72
2023-04-20T13:06:44.127Z,100261.66
2023-04-20T13:09:11.607Z,100276.47
2023-04-20T13:11:38.982Z,100265.13
2023-04-20T13:14:06.060Z,100258.97
2023-04-20T13:16:33.344Z,100254.75
2023-04-20T13:19:00.548Z,100266.28
2023-04-20T13:21:27.571Z,100247.97
2023-04-20T13:23:55.528Z,100260.97
2023-04-20T13:26:24.099Z,100246.03
2023-04-20T13:28:51.149Z,100244.16
2023-04-20T13:31:18.244Z,100256.50
2023-04-20T13:33:45.284Z,100246.06
2023-04-20T13:36:12.365Z,100249.66
2023-04-20T13:38:39.438Z,100262.88
2023-04-20T13:41:06.473Z,100195.09
2023-04-20T13:43:33.524Z,100263.94
2023-04-20T13:46:00.601Z,100254.50
2023-04-20T13:48:27.640Z,100258.06
2023-04-20T13:50:54.867Z,100264.22
2023-04-20T13:53:22.099Z,100260.72
2023-04-20T13:55:49.126Z,100266.94
2023-04-20T13:58:16.183Z,100255.63
2023-04-20T14:00:43.163Z,100261.78
2023-04-20T14:03:11.020Z,100264.41
2023-04-20T14:05:41.969Z,100223.44
2023-04-20T14:08:09.044Z,100258.25
2023-04-20T14:10:36.152Z,100257.38
2023-04-20T14:13:03.223Z,100263.53
2023-04-20T14:15:30.444Z,100238.28
2023-04-20T14:17:57.626Z,100262.78
2023-04-20T14:20:24.667Z,100232.28
2023-04-20T14:22:51.827Z,100265.50
2023-04-20T14:25:19.361Z,100264.72
2023-04-20T14:27:47.348Z,100253.41
2023-04-20T14:30:14.948Z,100253.44
2023-04-20T14:32:42.183Z,100254.28
2023-04-20T14:35:09.461Z,100256.00
2023-04-20T14:37:36.526Z,100248.25
2023-04-20T14:40:05.467Z,100243.81
2023-04-20T14:42:33.745Z,100248.22
2023-04-20T14:45:00.718Z,100259.59
2023-04-20T14:47:27.825Z,100257.88
2023-04-20T14:49:55.505Z,100258.72
2023-04-20T14:52:23.033Z,100256.94
2023-04-20T14:54:50.004Z,100258.69
2023-04-20T14:57:17.070Z,100256.94
2023-04-20T14:59:44.148Z,100256.91
2023-04-20T15:02:11.300Z,100246.41
2023-04-20T15:04:38.848Z,100249.03
2023-04-20T15:07:21.432Z,100251.66
2023-04-20T15:09:48.472Z,100250.75
2023-04-20T15:12:15.474Z,100262.09
2023-04-20T15:14:42.517Z,100247.28
2023-04-20T15:17:09.543Z,100242.97
2023-04-20T15:19:36.846Z,100250.78
2023-04-20T15:22:03.938Z,100223.72
2023-04-20T15:24:30.995Z,100249.91
2023-04-20T15:26:58.005Z,100249.06
2023-04-20T15:29:25.112Z,100222.88
2023-04-20T15:31:52.249Z,100175.81
2023-04-20T15:34:19.497Z,100217.59
2023-04-20T15:36:46.822Z,100232.47
2023-04-20T15:39:13.957Z,100236.84
2023-04-20T15:41:41.612Z,100207.19
2023-04-20T15:44:08.617Z,100241.22
2023-04-20T15:46:37.087Z,100219.44
2023-04-20T15:49:04.543Z,100228.16
2023-04-20T15:51:31.837Z,100236.91
2023-04-20T15:53:58.889Z,100238.69
2023-04-20T15:56:25.871Z,100242.22
2023-04-20T15:58:52.922Z,100225.66
2023-04-20T16:01:20.674Z,100229.16
2023-04-20T16:03:49.934Z,100228.28
2023-04-20T16:06:17.196Z,100230.97
2023-04-20T16:08:44.370Z,100240.59
2023-04-20T16:11:11.365Z,100237.97
2023-04-20T16:13:38.450Z,100235.34
2023-04-20T16:16:05.701Z,100236.25
2023-04-20T16:18:33.123Z,100238.88
2023-04-20T16:21:00.125Z,100236.28
2023-04-20T16:23:27.496Z,100225.78
2023-04-20T16:25:54.734Z,100221.44
2023-04-20T16:28:21.773Z,100213.59
2023-04-20T16:30:48.866Z,100223.19
2023-04-20T16:33:16.318Z,100218.88
2023-04-20T16:35:43.307Z,100220.63
2023-04-20T16:38:11.115Z,100219.75
2023-04-20T16:40:38.140Z,100221.50
2023-04-20T16:43:05.420Z,100204.97
2023-04-20T16:45:33.663Z,100190.97
2023-04-20T16:48:00.932Z,100222.41
2023-04-20T16:50:28.506Z,100216.31
2023-04-20T16:52:55.662Z,100213.72
2023-04-20T16:55:22.956Z,100207.59
2023-04-20T16:57:50.042Z,100182.28
2023-04-20T17:00:17.566Z,100215.47
2023-04-20T17:02:44.872Z,100220.72
2023-04-20T17:05:12.120Z,100219.84
2023-04-20T17:07:39.191Z,100210.22
2023-04-20T17:10:06.805Z,100218.06
2023-04-20T17:12:33.877Z,100220.72
2023-04-20T17:15:01.117Z,100216.34
2023-04-20T17:17:28.692Z,100201.47
2023-04-20T17:19:56.015Z,100213.69
2023-04-20T17:22:23.226Z,100214.53
2023-04-20T17:24:50.279Z,100189.22
2023-04-20T17:27:17.400Z,100218.91
2023-04-20T17:29:45.233Z,100211.03
2023-04-20T17:32:15.380Z,100212.75
2023-04-20T17:34:48.219Z,100211.88
2023-04-20T17:37:15.667Z,100213.63
2023-04-20T17:39:42.734Z,100221.44
2023-04-20T17:42:10.899Z,100215.31
2023-04-20T17:44:38.584Z,100204.84
2023-04-20T17:47:07.188Z,100210.91
2023-04-20T17:49:35.058Z,100203.88
2023-04-20T17:52:02.828Z,100222.19
2023-04-20T17:54:29.904Z,100223.03
2023-04-20T17:56:58.233Z,100153.97
2023-04-20T17:59:25.303Z,100231.66
2023-04-20T18:01:52.348Z,100217.69
2023-04-20T18:04:19.729Z,100231.53
2023-04-20T18:06:47.314Z,100233.25
2023-04-20T18:09:14.384Z,100226.28
2023-04-20T18:11:42.029Z,100233.25
2023-04-20T18:14:09.609Z,100210.47
2023-04-20T18:16:39.144Z,100211.25
2023-04-20T18:19:06.152Z,100231.31
2023-04-20T18:21:34.847Z,100234.75
2023-04-20T18:24:02.136Z,100232.94
2023-04-20T18:26:29.180Z,100221.50
2023-04-20T18:28:56.200Z,100231.09
2023-04-20T18:31:23.348Z,100227.53
2023-04-20T18:33:50.415Z,100238.88
2023-04-20T18:36:17.470Z,100226.63
2023-04-20T18:38:44.714Z,100234.47
2023-04-20T18:41:11.998Z,100234.44
2023-04-20T18:43:39.268Z,100230.13
2023-04-20T18:46:06.972Z,100228.44
2023-04-20T18:48:34.066Z,100202.22
2023-04-20T18:51:01.895Z,100229.34
2023-04-20T18:53:29.717Z,100229.28
2023-04-20T18:55:59.251Z,100228.44
2023-04-20T18:58:26.337Z,100221.47
2023-04-20T19:00:53.546Z,100203.94
2023-04-20T19:03:21.142Z,100199.41
2023-04-20T19:05:48.553Z,100224.69
2023-04-20T19:08:15.641Z,100232.53
2023-04-20T19:10:42.713Z,100221.22
2023-04-20T19:13:09.752Z,100229.03
2023-04-20T19:15:36.779Z,100228.19
2023-04-20T19:18:04.029Z,100212.44
2023-04-20T19:20:31.117Z,100208.84
2023-04-20T19:22:58.246Z,100232.38
2023-04-20T19:25:25.262Z,100224.56
2023-04-20T19:27:52.418Z,100138.78
2023-04-20T19:30:20.717Z,100206.91
2023-04-20T19:32:47.849Z,100212.94
2023-04-20T19:35:14.907Z,100241.72
2023-04-20T19:37:42.005Z,100225.88
2023-04-20T19:40:09.538Z,100242.47
2023-04-20T19:42:36.573Z,100212.78
2023-04-20T19:45:04.127Z,100241.56
2023-04-20T19:47:33.367Z,100238.91
2023-04-20T19:50:02.186Z,100239.75
2023-04-20T19:52:34.512Z,100236.19
2023-04-20T19:55:05.811Z,100231.69
2023-04-20T19:57:32.817Z,100224.59
2023-04-20T19:59:59.909Z,100241.94
2023-04-20T20:02:29.637Z,100235.75
2023-04-20T20:04:56.727Z,100217.34
2023-04-20T20:07:23.786Z,100237.34
2023-04-20T20:09:50.838Z,100245.00
2023-04-20T20:12:17.829Z,100251.91
2023-04-20T20:14:44.825Z,100252.72
2023-04-20T20:17:13.539Z,100258.72
2023-04-20T20:19:43.383Z,100252.63
2023-04-20T20:22:10.768Z,100259.47
2023-04-20T20:24:37.907Z,100241.88
2023-04-20T20:27:05.223Z,100245.38
2023-04-20T20:29:32.375Z,100246.19
2023-04-20T20:31:59.418Z,100223.38
2023-04-20T20:34:26.482Z,100250.47
2023-04-20T20:36:53.607Z,100243.50
2023-04-20T20:39:21.072Z,100233.88
2023-04-20T20:41:51.357Z,100175.19
2023-04-20T20:44:18.853Z,100222.47
2023-04-20T20:46:46.508Z,100239.94
2023-04-20T20:49:13.847Z,100189.16
2023-04-20T20:51:41.658Z,100199.69
2023-04-20T20:54:08.905Z,100232.06
2023-04-20T20:56:35.908Z,100233.75
2023-04-20T20:59:02.938Z,100228.41
2023-04-20T21:01:30.084Z,100223.97
2023-04-20T21:03:58.656Z,100223.91
2023-04-20T21:06:25.957Z,100221.28
2023-04-20T21:08:53.111Z,100230.78
2023-04-20T21:11:20.239Z,100218.72
2023-04-20T21:13:47.647Z,100226.53
2023-04-20T21:16:14.841Z,100223.88
2023-04-20T21:18:42.033Z,100201.16
2023-04-20T21:21:16.584Z,100188.00
2023-04-20T21:23:43.638Z,100185.38
2023-04-20T21:26:10.721Z,100209.78
2023-04-20T21:28:37.753Z,100215.91
2023-04-20T21:31:04.970Z,100180.91
2023-04-20T21:33:34.713Z,100205.38
2023-04-20T21:36:02.222Z,100171.25
2023-04-20T21:38:30.125Z,100207.97
2023-04-20T21:40:59.963Z,100207.00
2023-04-20T21:43:27.011Z,100204.31
2023-04-20T21:45:54.140Z,100202.59
2023-04-20T21:48:21.237Z,100198.25
2023-04-20T21:50:48.320Z,100197.31
2023-04-20T21:53:15.700Z,100188.50
2023-04-20T21:55:42.688Z,100196.38
2023-04-20T21:58:09.743Z,100190.28
2023-04-20T22:00:36.877Z,100201.47
2023-04-20T22:03:04.527Z,100196.09
2023-04-20T22:05:31.670Z,100139.16
2023-04-20T22:07:58.717Z,100196.81
2023-04-20T22:10:26.723Z,100194.09
2023-04-20T22:12:54.018Z,100198.31
2023-04-20T22:15:23.426Z,100191.22
2023-04-20T22:17:50.561Z,100197.28
2023-04-20T22:20:19.374Z,100191.94
2023-04-20T22:22:46.978Z,100183.94
2023-04-20T22:25:14.012Z,100190.09
2023-04-20T22:27:41.264Z,100187.38
2023-04-20T22:30:09.784Z,100184.72
2023-04-20T22:32:38.643Z,100165.28
2023-04-20T22:35:06.324Z,100175.69
2023-04-20T22:37:33.656Z,100187.03
2023-04-20T22:40:01.025Z,100179.28
2023-04-20T22:42:30.333Z,100157.41
2023-04-20T22:44:57.401Z,100169.63
2023-04-20T22:47:24.428Z,100170.56
2023-04-20T22:49:52.719Z,100178.44
2023-04-20T22:52:19.829Z,100162.84
2023-04-20T22:54:48.457Z,100174.94
2023-04-20T22:57:16.336Z,100166.75
2023-04-20T22:59:43.556Z,100172.84
2023-04-20T23:02:10.897Z,100170.09
2023-04-20T23:04:38.113Z,100159.47
2023-04-20T23:07:06.295Z,100174.38
2023-04-20T23:09:33.399Z,100166.31
2023-04-20T23:12:00.483Z,100175.81
2023-04-20T23:14:28.179Z,100179.22
2023-04-20T23:16:55.423Z,100180.97
2023-04-20T23:19:22.520Z,100184.41
2023-04-20T23:21:49.649Z,100166.00
2023-04-20T23:24:16.637Z,100156.47
2023-04-20T23:26:43.672Z,100157.44
2023-04-20T23:29:10.708Z,100166.09
2023-04-20T23:31:37.813Z,100161.63
2023-04-20T23:34:04.936Z,100160.59
2023-04-20T23:36:32.639Z,100160.31
2023-04-20T23:38:59.806Z,100109.41
2023-04-20T23:41:26.826Z,100154.88
2023-04-20T23:43:53.877Z,100155.66
2023-04-20T23:46:20.966Z,100159.06
2023-04-20T23:48:49.400Z,100144.09
2023-04-20T23:51:16.452Z,100142.22
2023-04-20T23:53:43.629Z,100164.84
2023-04-20T23:56:10.803Z,100159.47
2023-04-20T23:58:38.262Z,100155.00
